JAL21 RJAA-RJTT
Flight info
| Callsign | JAL21 |
|---|---|
| Flight time | 0h 25m |
| Altitude | 30000 |
| Route | PEDLA Y824 AROSA |
| Aircraft | E75L/M-SDE3GILORVW/S |
Departure
| Time | 2026-02-21 07:09 |
|---|---|
| Airport | Narita International Airport (RJAA) |
Arrival
| Time | 2026-02-21 07:34 |
|---|---|
| Airport | Tokyo Haneda International Airport (RJTT) |
| Time | Latitude | Longitude | Altitude | Speed | Heading |
|---|---|---|---|---|---|
| 2026-02-21 06:44 | 35.76136 | 140.38425 | 137 ft | 0 kts | 60° |
| 2026-02-21 07:01 | 35.76137 | 140.38425 | 137 ft | 0 kts | 60° |
| 2026-02-21 07:01 | 35.76131 | 140.38414 | 137 ft | 2 kts | 60° |
| 2026-02-21 07:01 | 35.76124 | 140.38397 | 137 ft | 2 kts | 60° |
| 2026-02-21 07:02 | 35.76117 | 140.38382 | 137 ft | 2 kts | 60° |
| 2026-02-21 07:02 | 35.76109 | 140.38365 | 137 ft | 2 kts | 60° |
| 2026-02-21 07:02 | 35.76102 | 140.38350 | 138 ft | 2 kts | 60° |
| 2026-02-21 07:02 | 35.76095 | 140.38333 | 138 ft | 2 kts | 74° |
| 2026-02-21 07:03 | 35.76094 | 140.38316 | 138 ft | 2 kts | 100° |
| 2026-02-21 07:03 | 35.76099 | 140.38300 | 138 ft | 2 kts | 127° |
| 2026-02-21 07:03 | 35.76109 | 140.38289 | 138 ft | 1 kts | 149° |
| 2026-02-21 07:03 | 35.76111 | 140.38287 | 138 ft | 0 kts | 149° |
| 2026-02-21 07:05 | 35.76095 | 140.38295 | 138 ft | 6 kts | 165° |
| 2026-02-21 07:05 | 35.76047 | 140.38271 | 138 ft | 10 kts | 217° |
| 2026-02-21 07:05 | 35.75969 | 140.38275 | 137 ft | 14 kts | 152° |
| 2026-02-21 07:05 | 35.75862 | 140.38353 | 135 ft | 21 kts | 149° |
| 2026-02-21 07:06 | 35.75723 | 140.38452 | 135 ft | 24 kts | 148° |
| 2026-02-21 07:06 | 35.75574 | 140.38559 | 135 ft | 24 kts | 149° |
| 2026-02-21 07:06 | 35.75430 | 140.38664 | 135 ft | 23 kts | 150° |
| 2026-02-21 07:06 | 35.75277 | 140.38655 | 136 ft | 22 kts | 171° |
| 2026-02-21 07:07 | 35.75135 | 140.38748 | 136 ft | 24 kts | 149° |
| 2026-02-21 07:07 | 35.74979 | 140.38864 | 135 ft | 28 kts | 148° |
| 2026-02-21 07:07 | 35.74797 | 140.38992 | 134 ft | 32 kts | 150° |
| 2026-02-21 07:07 | 35.74588 | 140.39145 | 130 ft | 37 kts | 149° |
| 2026-02-21 07:08 | 35.74386 | 140.39153 | 128 ft | 30 kts | 236° |
| 2026-02-21 07:08 | 35.74509 | 140.38950 | 130 ft | 57 kts | 329° |
| 2026-02-21 07:08 | 35.75038 | 140.38560 | 140 ft | 118 kts | 329° |
| 2026-02-21 07:08 | 35.75877 | 140.37941 | 239 ft | 153 kts | 340° |
| 2026-02-21 07:09 | 35.76851 | 140.37380 | 743 ft | 158 kts | 338° |
| 2026-02-21 07:09 | 35.77786 | 140.36819 | 1496 ft | 149 kts | 340° |
| 2026-02-21 07:09 | 35.78789 | 140.36165 | 1777 ft | 175 kts | 327° |
| 2026-02-21 07:09 | 35.79775 | 140.35329 | 2353 ft | 183 kts | 329° |
| 2026-02-21 07:10 | 35.80906 | 140.34431 | 2824 ft | 207 kts | 329° |
| 2026-02-21 07:10 | 35.82188 | 140.33453 | 3325 ft | 224 kts | 330° |
| 2026-02-21 07:10 | 35.83516 | 140.32461 | 3840 ft | 226 kts | 328° |
| 2026-02-21 07:10 | 35.84501 | 140.30978 | 4371 ft | 232 kts | 286° |
| 2026-02-21 07:11 | 35.84446 | 140.29056 | 4956 ft | 229 kts | 244° |
| 2026-02-21 07:11 | 35.83391 | 140.27675 | 5548 ft | 227 kts | 203° |
| 2026-02-21 07:11 | 35.81830 | 140.27300 | 6140 ft | 227 kts | 181° |
| 2026-02-21 07:11 | 35.80236 | 140.27341 | 6680 ft | 232 kts | 176° |
| 2026-02-21 07:12 | 35.78636 | 140.27539 | 6975 ft | 236 kts | 173° |
| 2026-02-21 07:12 | 35.77004 | 140.27834 | 7001 ft | 235 kts | 171° |
| 2026-02-21 07:12 | 35.75391 | 140.28172 | 7007 ft | 234 kts | 169° |
| 2026-02-21 07:12 | 35.73846 | 140.28845 | 7023 ft | 234 kts | 157° |
| 2026-02-21 07:13 | 35.72367 | 140.29658 | 7013 ft | 233 kts | 155° |
| 2026-02-21 07:13 | 35.70885 | 140.30513 | 7011 ft | 232 kts | 155° |
| 2026-02-21 07:13 | 35.69439 | 140.31363 | 7012 ft | 232 kts | 155° |
| 2026-02-21 07:13 | 35.67969 | 140.32236 | 7013 ft | 231 kts | 154° |
| 2026-02-21 07:14 | 35.66524 | 140.33099 | 7008 ft | 232 kts | 154° |
| 2026-02-21 07:14 | 35.65058 | 140.33911 | 7002 ft | 231 kts | 168° |
| 2026-02-21 07:14 | 35.63455 | 140.33852 | 7043 ft | 230 kts | 191° |
| 2026-02-21 07:14 | 35.61877 | 140.33460 | 7016 ft | 231 kts | 192° |
| 2026-02-21 07:15 | 35.60306 | 140.33061 | 7012 ft | 231 kts | 192° |
| 2026-02-21 07:15 | 35.58751 | 140.32671 | 7011 ft | 231 kts | 192° |
| 2026-02-21 07:15 | 35.57176 | 140.32283 | 7011 ft | 230 kts | 192° |
| 2026-02-21 07:15 | 35.55592 | 140.31898 | 7021 ft | 230 kts | 192° |
| 2026-02-21 07:16 | 35.54036 | 140.31516 | 7015 ft | 230 kts | 192° |
| 2026-02-21 07:16 | 35.52449 | 140.31126 | 7012 ft | 229 kts | 192° |
| 2026-02-21 07:16 | 35.50884 | 140.30739 | 7012 ft | 230 kts | 192° |
| 2026-02-21 07:16 | 35.49318 | 140.30345 | 7015 ft | 230 kts | 192° |
| 2026-02-21 07:17 | 35.47966 | 140.30005 | 7019 ft | 229 kts | 192° |
| 2026-02-21 07:17 | 35.46684 | 140.29677 | 6918 ft | 234 kts | 192° |
| 2026-02-21 07:17 | 35.45254 | 140.29300 | 6911 ft | 233 kts | 192° |
| 2026-02-21 07:17 | 35.43547 | 140.28850 | 6909 ft | 233 kts | 192° |
| 2026-02-21 07:18 | 35.41961 | 140.28433 | 6908 ft | 233 kts | 192° |
| 2026-02-21 07:18 | 35.40364 | 140.28012 | 6557 ft | 238 kts | 192° |
| 2026-02-21 07:18 | 35.38732 | 140.27582 | 6181 ft | 238 kts | 192° |
| 2026-02-21 07:18 | 35.37118 | 140.27156 | 5808 ft | 237 kts | 192° |
| 2026-02-21 07:19 | 35.35517 | 140.26735 | 5436 ft | 236 kts | 192° |
| 2026-02-21 07:19 | 35.33907 | 140.26311 | 5061 ft | 236 kts | 192° |
| 2026-02-21 07:19 | 35.32293 | 140.25885 | 4685 ft | 235 kts | 192° |
| 2026-02-21 07:19 | 35.30705 | 140.25467 | 4313 ft | 234 kts | 192° |
| 2026-02-21 07:20 | 35.29107 | 140.25044 | 3970 ft | 232 kts | 192° |
| 2026-02-21 07:20 | 35.27584 | 140.24643 | 3906 ft | 220 kts | 192° |
| 2026-02-21 07:20 | 35.26077 | 140.24246 | 3908 ft | 220 kts | 192° |
| 2026-02-21 07:20 | 35.24587 | 140.23853 | 3912 ft | 222 kts | 192° |
| 2026-02-21 07:21 | 35.23053 | 140.23447 | 3912 ft | 223 kts | 192° |
| 2026-02-21 07:21 | 35.21534 | 140.23047 | 3910 ft | 223 kts | 192° |
| 2026-02-21 07:21 | 35.20007 | 140.22643 | 3909 ft | 223 kts | 192° |
| 2026-02-21 07:21 | 35.18481 | 140.22240 | 3909 ft | 223 kts | 192° |
| 2026-02-21 07:22 | 35.16960 | 140.21838 | 3909 ft | 223 kts | 192° |
| 2026-02-21 07:22 | 35.15434 | 140.21436 | 3909 ft | 223 kts | 192° |
| 2026-02-21 07:22 | 35.13911 | 140.21033 | 3909 ft | 223 kts | 192° |
| 2026-02-21 07:22 | 35.12560 | 140.20676 | 3909 ft | 223 kts | 192° |
| 2026-02-21 07:23 | 35.11048 | 140.20276 | 3909 ft | 223 kts | 193° |
| 2026-02-21 07:23 | 35.09284 | 140.17914 | 3945 ft | 224 kts | 268° |
| 2026-02-21 07:23 | 35.09594 | 140.15903 | 3939 ft | 224 kts | 290° |
| 2026-02-21 07:24 | 35.10457 | 140.14362 | 3936 ft | 223 kts | 313° |
| 2026-02-21 07:24 | 35.11549 | 140.12984 | 3914 ft | 223 kts | 314° |
| 2026-02-21 07:24 | 35.12632 | 140.11632 | 3910 ft | 223 kts | 314° |
| 2026-02-21 07:24 | 35.13728 | 140.10260 | 3909 ft | 223 kts | 314° |
| 2026-02-21 07:25 | 35.14814 | 140.08902 | 3909 ft | 223 kts | 314° |
| 2026-02-21 07:25 | 35.15901 | 140.07542 | 3909 ft | 223 kts | 314° |
| 2026-02-21 07:25 | 35.17025 | 140.06259 | 3910 ft | 223 kts | 321° |
| 2026-02-21 07:25 | 35.18245 | 140.05098 | 3910 ft | 223 kts | 322° |
| 2026-02-21 07:26 | 35.19471 | 140.03944 | 3909 ft | 223 kts | 324° |
| 2026-02-21 07:26 | 35.20761 | 140.02908 | 3909 ft | 223 kts | 331° |
| 2026-02-21 07:26 | 35.22152 | 140.02004 | 3910 ft | 223 kts | 332° |
| 2026-02-21 07:26 | 35.23514 | 140.01128 | 3909 ft | 223 kts | 332° |
| 2026-02-21 07:27 | 35.24981 | 140.00513 | 3920 ft | 223 kts | 347° |
| 2026-02-21 07:27 | 35.26463 | 139.99979 | 3913 ft | 223 kts | 339° |
| 2026-02-21 07:27 | 35.27922 | 139.99272 | 3911 ft | 223 kts | 338° |
| 2026-02-21 07:27 | 35.29360 | 139.98540 | 3908 ft | 223 kts | 333° |
| 2026-02-21 07:28 | 35.30708 | 139.97664 | 3910 ft | 223 kts | 328° |
| 2026-02-21 07:28 | 35.31995 | 139.96663 | 3910 ft | 223 kts | 327° |
| 2026-02-21 07:28 | 35.33313 | 139.95625 | 3909 ft | 223 kts | 327° |
| 2026-02-21 07:28 | 35.34594 | 139.94531 | 3910 ft | 223 kts | 322° |
| 2026-02-21 07:29 | 35.35836 | 139.93375 | 3908 ft | 223 kts | 327° |
| 2026-02-21 07:29 | 35.37192 | 139.92444 | 3913 ft | 223 kts | 332° |
| 2026-02-21 07:29 | 35.38558 | 139.91562 | 3910 ft | 223 kts | 332° |
| 2026-02-21 07:29 | 35.39945 | 139.90665 | 3909 ft | 223 kts | 332° |
| 2026-02-21 07:30 | 35.41213 | 139.89775 | 3422 ft | 237 kts | 328° |
| 2026-02-21 07:30 | 35.42453 | 139.88823 | 2826 ft | 256 kts | 328° |
| 2026-02-21 07:30 | 35.43884 | 139.87707 | 2388 ft | 248 kts | 327° |
| 2026-02-21 07:30 | 35.45359 | 139.86586 | 1717 ft | 219 kts | 329° |
| 2026-02-21 07:31 | 35.46609 | 139.85696 | 1373 ft | 186 kts | 330° |
| 2026-02-21 07:31 | 35.47647 | 139.84993 | 1311 ft | 158 kts | 331° |
| 2026-02-21 07:31 | 35.48443 | 139.84431 | 1362 ft | 131 kts | 330° |
| 2026-02-21 07:31 | 35.49227 | 139.83878 | 1174 ft | 128 kts | 329° |
| 2026-02-21 07:32 | 35.49876 | 139.83400 | 1034 ft | 130 kts | 328° |
| 2026-02-21 07:32 | 35.50115 | 139.83221 | 1004 ft | 130 kts | 329° |
| 2026-02-21 07:32 | 35.50263 | 139.83113 | 977 ft | 129 kts | 329° |
| 2026-02-21 07:33 | 35.53325 | 139.80954 | 213 ft | 126 kts | 330° |
| 2026-02-21 07:33 | 35.53992 | 139.80490 | 103 ft | 127 kts | 330° |
| 2026-02-21 07:33 | 35.54756 | 139.79953 | 8 ft | 119 kts | 330° |
| 2026-02-21 07:34 | 35.55312 | 139.79558 | 7 ft | 43 kts | 328° |
| 2026-02-21 07:34 | 35.55466 | 139.79372 | 7 ft | 20 kts | 304° |
| 2026-02-21 07:34 | 35.55524 | 139.79245 | 8 ft | 12 kts | 292° |
| 2026-02-21 07:34 | 35.55555 | 139.79132 | 10 ft | 19 kts | 324° |
| 2026-02-21 07:35 | 35.55680 | 139.79045 | 9 ft | 21 kts | 330° |
| 2026-02-21 07:35 | 35.55738 | 139.78946 | 11 ft | 7 kts | 224° |
| 2026-02-21 07:35 | 35.55694 | 139.78844 | 16 ft | 12 kts | 240° |
| 2026-02-21 07:35 | 35.55621 | 139.78848 | 17 ft | 11 kts | 149° |
| 2026-02-21 07:36 | 35.55597 | 139.78865 | 17 ft | 0 kts | 150° |